Time;durP1;ratioP1;P1;durP2;ratioP2;P2;SDS_P1;SDS_P2;PMS_P1;PMS_P2;Temp;Humidity;BMP_temperature;BMP_pressure;BME280_temperature;BME280_humidity;BME280_pressure;Samples;Min_cycle;Max_cycle;Signal;HPM_P1;HPM_P2
2023/03/19 00:01:29;;;;;;;0.70;0.70;;;;;;;9.53;100.00;100950.50;5040432;28;20212;-70
2023/03/19 00:03:56;;;;;;;0.70;0.70;;;;;;;9.49;100.00;100957.31;5092413;28;20194;-70
2023/03/19 00:06:24;;;;;;;0.90;0.90;;;;;;;9.60;100.00;100957.66;5056763;28;20209;-70
2023/03/19 00:08:51;;;;;;;0.70;0.70;;;;;;;9.17;100.00;100883.78;5092624;28;20669;-70
2023/03/19 00:11:17;;;;;;;0.80;0.80;;;;;;;9.56;100.00;100961.00;5092382;28;20297;-70
2023/03/19 00:13:44;;;;;;;0.90;0.90;;;;;;;9.51;100.00;100962.53;5092255;28;20245;-70
2023/03/19 00:16:12;;;;;;;0.70;0.70;;;;;;;9.42;100.00;100938.09;5092170;28;20201;-70
2023/03/19 00:18:39;;;;;;;1.00;1.00;;;;;;;9.49;100.00;100952.13;5092130;28;20195;-70
2023/03/19 00:21:06;;;;;;;0.60;0.60;;;;;;;9.40;100.00;100932.00;5092212;28;20197;-70
2023/03/19 00:23:33;;;;;;;0.70;0.70;;;;;;;9.36;100.00;100927.56;5091871;28;20680;-70
2023/03/19 00:26:00;;;;;;;0.68;0.68;;;;;;;9.43;100.00;100950.22;5091985;28;20190;-70
2023/03/19 00:28:27;;;;;;;0.80;0.80;;;;;;;9.46;100.00;100945.16;5091962;28;20194;-70
2023/03/19 00:30:54;;;;;;;0.70;0.70;;;;;;;9.40;100.00;100939.78;5092033;28;20595;-70
2023/03/19 00:33:22;;;;;;;0.60;0.60;;;;;;;9.54;100.00;100934.16;5091843;28;20198;-70
2023/03/19 00:35:49;;;;;;;0.80;0.80;;;;;;;9.47;100.00;100930.50;5092237;28;20209;-70
2023/03/19 00:38:16;;;;;;;0.70;0.70;;;;;;;9.29;100.00;100897.13;5091547;28;20202;-70
2023/03/19 00:40:43;;;;;;;0.70;0.70;;;;;;;9.55;100.00;100934.22;5091723;28;20195;-70
2023/03/19 00:43:10;;;;;;;0.60;0.60;;;;;;;9.54;100.00;100921.22;5091771;28;20202;-70
2023/03/19 00:45:37;;;;;;;0.70;0.70;;;;;;;9.53;100.00;100929.81;5091736;28;20274;-70
2023/03/19 00:48:04;;;;;;;0.70;0.70;;;;;;;9.56;100.00;100927.34;5091284;28;20202;-70
2023/03/19 00:50:32;;;;;;;0.90;0.90;;;;;;;9.63;100.00;100921.53;5091702;28;20302;-70
2023/03/19 00:52:59;;;;;;;0.70;0.70;;;;;;;9.60;100.00;100922.28;5091560;28;20204;-70
2023/03/19 00:55:26;;;;;;;0.60;0.60;;;;;;;9.62;100.00;100914.59;5091515;28;20260;-71
2023/03/19 00:57:53;;;;;;;0.70;0.70;;;;;;;9.67;100.00;100907.81;5056570;28;20237;-70
2023/03/19 01:00:20;;;;;;;0.70;0.70;;;;;;;9.48;100.00;100893.44;5091255;28;20206;-70
2023/03/19 01:02:47;;;;;;;0.80;0.80;;;;;;;9.56;100.00;100910.06;5091523;28;20254;-71
2023/03/19 01:05:14;;;;;;;1.33;1.33;;;;;;;9.42;100.00;100906.16;5091297;28;20209;-71
2023/03/19 01:07:43;;;;;;;0.90;0.90;;;;;;;9.41;100.00;100876.84;5091263;28;20286;-71
2023/03/19 01:10:10;;;;;;;1.00;1.00;;;;;;;9.65;100.00;100899.16;5091067;28;20201;-70
2023/03/19 01:12:37;;;;;;;9.95;4.93;;;;;;;9.65;100.00;100900.03;5090964;28;20238;-70
2023/03/19 01:15:06;;;;;;;0.70;0.70;;;;;;;9.75;100.00;100896.00;5091015;28;20270;-70
2023/03/19 01:17:33;;;;;;;0.70;0.70;;;;;;;9.73;100.00;100903.75;5091045;28;20750;-70
2023/03/19 01:19:59;;;;;;;0.73;0.73;;;;;;;9.79;100.00;100901.34;5091319;28;20198;-70
2023/03/19 01:22:26;;;;;;;0.80;0.80;;;;;;;9.28;100.00;100820.31;5090833;28;20201;-70
2023/03/19 01:24:54;;;;;;;1.10;1.10;;;;;;;9.80;100.00;100904.81;5090861;28;20198;-70
2023/03/19 01:27:21;;;;;;;0.70;0.70;;;;;;;9.65;100.00;100899.16;5090757;28;20198;-70
2023/03/19 01:29:48;;;;;;;0.82;0.82;;;;;;;9.62;100.00;100899.06;5039032;28;20226;-71
2023/03/19 01:32:15;;;;;;;0.80;0.80;;;;;;;9.60;100.00;100891.22;5090765;28;20190;-70
2023/03/19 01:34:42;;;;;;;0.50;0.50;;;;;;;9.59;100.00;100889.50;5090692;28;20619;-71
2023/03/19 01:37:09;;;;;;;0.75;0.75;;;;;;;9.58;100.00;100887.72;5091342;28;20217;-70
2023/03/19 01:39:35;;;;;;;0.60;0.60;;;;;;;9.41;100.00;100874.25;5091035;28;20193;-70
2023/03/19 01:42:04;;;;;;;0.70;0.70;;;;;;;9.50;100.00;100893.47;5090879;28;20198;-70
2023/03/19 01:44:33;;;;;;;0.82;0.82;;;;;;;9.44;100.00;100894.16;5090788;28;20198;-70
2023/03/19 01:47:03;;;;;;;0.70;0.70;;;;;;;9.31;100.00;100886.84;5091014;28;20216;-70
2023/03/19 01:49:31;;;;;;;0.70;0.70;;;;;;;9.32;100.00;100901.53;5090759;28;20208;-70
2023/03/19 01:51:59;;;;;;;0.80;0.80;;;;;;;9.30;100.00;100898.91;5090792;28;20194;-70
2023/03/19 01:54:26;;;;;;;0.80;0.80;;;;;;;9.19;100.00;100881.25;5090668;28;20616;-70
2023/03/19 01:56:58;;;;;;;0.70;0.70;;;;;;;9.37;100.00;100903.44;5090689;28;20198;-70
2023/03/19 01:59:30;;;;;;;0.70;0.70;;;;;;;9.36;100.00;100896.50;5090762;28;20238;-70
2023/03/19 02:02:01;;;;;;;0.70;0.70;;;;;;;9.44;100.00;100905.41;5094534;28;20247;-70
2023/03/19 02:04:29;;;;;;;0.70;0.70;;;;;;;9.49;100.00;100917.63;5094476;28;20584;-70
2023/03/19 02:06:57;;;;;;;0.70;0.70;;;;;;;9.49;100.00;100913.28;5094522;28;20237;-70
2023/03/19 02:09:26;;;;;;;0.80;0.80;;;;;;;9.55;100.00;100907.47;5094712;28;20205;-70
2023/03/19 02:11:54;;;;;;;0.60;0.60;;;;;;;9.53;100.00;100899.63;5095019;28;20198;-71
2023/03/19 02:14:21;;;;;;;0.70;0.70;;;;;;;9.48;100.00;100893.44;5094578;28;20675;-70
2023/03/19 02:16:50;;;;;;;0.52;0.52;;;;;;;9.55;100.00;100897.09;5059142;28;20202;-70
2023/03/19 02:19:22;;;;;;;0.60;0.60;;;;;;;9.07;100.00;100827.38;5094555;28;20209;-70
2023/03/19 02:21:49;;;;;;;0.80;0.80;;;;;;;9.43;100.00;100916.59;5059107;28;20201;-70
2023/03/19 02:24:20;;;;;;;0.65;0.65;;;;;;;9.40;100.00;100908.72;5094356;28;20665;-70
2023/03/19 02:26:48;;;;;;;0.77;0.77;;;;;;;9.44;100.00;100918.34;5094579;28;20657;-70
2023/03/19 02:29:15;;;;;;;1.07;1.07;;;;;;;9.38;100.00;100920.72;5042254;28;20206;-70
2023/03/19 02:31:42;;;;;;;0.65;0.65;;;;;;;9.30;100.00;100906.66;5094306;28;20194;-70
2023/03/19 02:34:34;;;;;;;1.08;1.08;;;;;;;9.44;100.00;100920.94;5094023;28;20230;-70
2023/03/19 02:37:06;;;;;;;0.80;0.80;;;;;;;9.38;100.00;100925.03;5094323;28;20281;-70
2023/03/19 02:39:41;;;;;;;0.60;0.60;;;;;;;9.35;100.00;100930.09;5094216;28;20210;-70
2023/03/19 02:42:11;;;;;;;0.60;0.60;;;;;;;9.32;100.00;100935.16;5094431;28;20627;-70
2023/03/19 02:44:38;;;;;;;0.83;0.83;;;;;;;9.12;100.00;100929.31;5093855;28;20202;-70
2023/03/19 02:47:05;;;;;;;0.70;0.70;;;;;;;9.05;100.00;100917.00;5058836;28;20198;-70
2023/03/19 02:49:32;;;;;;;0.50;0.50;;;;;;;9.08;100.00;100929.16;5094179;28;20194;-70
2023/03/19 02:51:59;;;;;;;0.83;0.83;;;;;;;9.02;100.00;100928.97;5094007;28;20198;-70
2023/03/19 02:54:26;;;;;;;0.53;0.53;;;;;;;8.95;100.00;100925.28;5093724;28;20218;-70
2023/03/19 02:56:53;;;;;;;0.80;0.80;;;;;;;8.75;100.00;100883.19;5093809;28;20190;-70
2023/03/19 02:59:21;;;;;;;0.80;0.80;;;;;;;9.03;100.00;100918.66;5093727;28;20245;-70
2023/03/19 03:01:48;;;;;;;0.80;0.80;;;;;;;8.92;100.00;100922.56;5093624;28;20601;-70
2023/03/19 03:04:15;;;;;;;0.70;0.70;;;;;;;8.88;100.00;100919.00;5093900;28;20202;-70
2023/03/19 03:06:42;;;;;;;0.60;0.60;;;;;;;8.82;100.00;100900.69;5093778;28;20303;-70
2023/03/19 03:09:09;;;;;;;0.60;0.60;;;;;;;8.76;100.00;100894.44;5093418;28;20251;-70
2023/03/19 03:11:36;;;;;;;0.70;0.70;;;;;;;8.69;100.00;100885.56;5093221;28;20217;-70
2023/03/19 03:14:03;;;;;;;0.73;0.73;;;;;;;8.82;100.00;100915.31;5093679;28;20198;-70
2023/03/19 03:16:32;;;;;;;0.70;0.70;;;;;;;8.83;100.00;100911.91;5093469;28;20201;-70
2023/03/19 03:18:58;;;;;;;1.33;1.23;;;;;;;8.73;100.00;100908.13;5093535;28;20232;-70
2023/03/19 03:21:25;;;;;;;0.70;0.70;;;;;;;8.62;100.00;100900.81;5093488;28;20194;-70
2023/03/19 03:23:52;;;;;;;0.90;0.90;;;;;;;8.67;100.00;100922.56;5093378;28;20198;-70
2023/03/19 03:26:19;;;;;;;0.90;0.90;;;;;;;8.59;100.00;100911.06;5093169;28;20689;-70
2023/03/19 03:28:46;;;;;;;0.70;0.70;;;;;;;8.54;100.00;100916.03;5008334;28;20259;-70
2023/03/19 03:31:13;;;;;;;0.60;0.60;;;;;;;8.27;100.00;100869.38;5093098;28;20642;-70
2023/03/19 03:33:41;;;;;;;0.57;0.57;;;;;;;8.51;100.00;100915.06;5093043;28;20205;-70
2023/03/19 03:36:08;;;;;;;0.73;0.73;;;;;;;8.41;100.00;100916.44;5093325;28;20313;-70
2023/03/19 03:38:35;;;;;;;0.73;0.73;;;;;;;8.38;100.00;100916.31;5092866;28;20669;-70
2023/03/19 03:41:03;;;;;;;0.80;0.80;;;;;;;8.36;100.00;100912.78;5092980;28;20198;-70
2023/03/19 03:43:30;;;;;;;0.70;0.70;;;;;;;8.33;100.00;100918.72;5092866;28;20206;-71
2023/03/19 03:45:57;;;;;;;0.70;0.70;;;;;;;8.23;100.00;100906.25;5092901;28;20202;-70
2023/03/19 03:48:24;;;;;;;0.70;0.70;;;;;;;8.25;100.00;100920.09;5092814;28;20194;-70
2023/03/19 03:50:53;;;;;;;0.90;0.90;;;;;;;8.29;100.00;100923.72;5092677;28;20201;-71
2023/03/19 03:53:19;;;;;;;0.87;0.87;;;;;;;8.19;100.00;100919.88;5057255;28;20198;-70
2023/03/19 03:55:46;;;;;;;2.07;1.97;;;;;;;8.13;100.00;100924.81;5092805;28;20656;-70
2023/03/19 03:58:13;;;;;;;0.90;0.90;;;;;;;8.11;100.00;100923.88;5092496;28;20241;-70
2023/03/19 04:00:40;;;;;;;0.60;0.60;;;;;;;8.12;100.00;100919.59;5092328;28;20198;-70
2023/03/19 04:03:07;;;;;;;0.80;0.80;;;;;;;8.07;100.00;100913.34;5092551;28;20198;-70
2023/03/19 04:05:35;;;;;;;0.80;0.80;;;;;;;7.96;100.00;100905.19;5092263;28;20209;-70
2023/03/19 04:08:03;;;;;;;0.60;0.60;;;;;;;8.07;100.00;100929.72;5092425;28;20209;-71
2023/03/19 04:10:31;;;;;;;0.70;0.70;;;;;;;7.93;100.00;100930.91;5092492;28;20197;-71
2023/03/19 04:12:58;;;;;;;0.73;0.73;;;;;;;7.75;100.00;100913.00;5092377;28;20293;-71
2023/03/19 04:15:25;;;;;;;0.70;0.70;;;;;;;7.74;100.00;100928.44;5091943;28;20222;-71
2023/03/19 04:17:52;;;;;;;0.80;0.80;;;;;;;7.70;100.00;100926.56;5056999;28;20190;-70
2023/03/19 04:20:21;;;;;;;0.90;0.90;;;;;;;7.71;100.00;100923.13;5091944;28;20197;-71
2023/03/19 04:22:48;;;;;;;0.70;0.70;;;;;;;7.73;100.00;100929.25;5040735;28;20198;-71
2023/03/19 04:25:17;;;;;;;0.60;0.60;;;;;;;7.73;100.00;100916.34;5092003;28;20210;-71
2023/03/19 04:27:44;;;;;;;0.90;0.90;;;;;;;7.82;100.00;100932.19;5091840;28;20661;-71
2023/03/19 04:30:12;;;;;;;0.77;0.77;;;;;;;7.77;100.00;100923.38;5092114;28;20219;-71
2023/03/19 04:32:39;;;;;;;0.80;0.80;;;;;;;7.66;100.00;100898.84;5091802;28;20597;-71
2023/03/19 04:35:06;;;;;;;0.87;0.87;;;;;;;7.72;100.00;100897.38;5091603;28;20642;-71
2023/03/19 04:37:34;;;;;;;0.80;0.80;;;;;;;7.80;100.00;100910.59;5091935;28;20201;-71
2023/03/19 04:40:00;;;;;;;0.90;0.90;;;;;;;7.78;100.00;100926.00;5040085;28;20194;-71
2023/03/19 04:42:28;;;;;;;0.80;0.80;;;;;;;7.85;100.00;100932.28;5056166;28;20197;-71
2023/03/19 04:44:56;;;;;;;0.80;0.80;;;;;;;7.77;100.00;100938.88;5091591;28;20297;-71
2023/03/19 04:47:22;;;;;;;0.80;0.80;;;;;;;7.81;100.00;100935.59;5091622;28;20221;-71
2023/03/19 04:49:49;;;;;;;1.33;1.23;;;;;;;7.86;100.00;100934.94;5091555;28;20200;-71
2023/03/19 04:52:16;;;;;;;0.70;0.70;;;;;;;7.88;100.00;100943.63;5091579;28;20194;-71
2023/03/19 04:54:43;;;;;;;2.40;2.30;;;;;;;7.85;100.00;100940.03;5091483;28;20202;-70
2023/03/19 04:57:10;;;;;;;0.87;0.87;;;;;;;7.92;100.00;100930.00;5091550;28;20204;-70
2023/03/19 04:59:38;;;;;;;3.20;3.00;;;;;;;8.07;100.00;100932.31;5091251;28;20312;-70
2023/03/19 05:02:05;;;;;;;1.10;1.10;;;;;;;8.12;100.00;100930.81;5091174;28;20720;-70
2023/03/19 05:04:32;;;;;;;0.90;0.90;;;;;;;8.15;100.00;100938.66;5091365;28;20742;-71
2023/03/19 05:06:59;;;;;;;0.60;0.60;;;;;;;8.21;100.00;100933.72;5091322;28;20250;-71
2023/03/19 05:09:26;;;;;;;0.70;0.70;;;;;;;8.28;100.00;100940.91;5090964;28;20731;-71
2023/03/19 05:11:53;;;;;;;0.80;0.80;;;;;;;8.25;100.00;100930.44;5091100;28;20574;-71
2023/03/19 05:14:20;;;;;;;0.70;0.70;;;;;;;8.35;100.00;100940.31;5090992;28;20205;-71
2023/03/19 05:16:48;;;;;;;0.80;0.80;;;;;;;8.46;100.00;100941.59;5090750;28;20237;-71
2023/03/19 05:19:14;;;;;;;0.70;0.70;;;;;;;8.27;100.00;100902.97;5090933;28;20194;-71
2023/03/19 05:21:41;;;;;;;0.80;0.80;;;;;;;8.55;100.00;100941.06;5090846;28;20590;-70
2023/03/19 05:24:09;;;;;;;0.60;0.60;;;;;;;8.66;100.00;100938.88;5090742;28;20633;-71
2023/03/19 05:26:36;;;;;;;0.70;0.70;;;;;;;8.71;100.00;100942.50;5090811;28;20198;-71
2023/03/19 05:29:03;;;;;;;0.83;0.83;;;;;;;8.61;100.00;100936.13;5090678;28;20198;-70
2023/03/19 05:31:30;;;;;;;2.77;2.67;;;;;;;8.51;100.00;100943.47;5006308;28;20198;-71
2023/03/19 05:33:58;;;;;;;1.07;1.07;;;;;;;8.54;100.00;100939.31;5038690;28;20190;-71
2023/03/19 05:36:25;;;;;;;1.83;1.73;;;;;;;8.48;100.00;100936.50;5090764;28;20249;-71
2023/03/19 05:38:52;;;;;;;0.80;0.80;;;;;;;8.63;100.00;100933.59;5090900;28;20202;-71
2023/03/19 05:41:19;;;;;;;0.90;0.90;;;;;;;8.54;100.00;100916.03;5090621;28;20673;-71
2023/03/19 05:43:45;;;;;;;0.97;0.97;;;;;;;8.64;100.00;100935.34;5090834;28;20198;-71
2023/03/19 05:46:13;;;;;;;0.60;0.60;;;;;;;8.66;100.00;100933.72;5091065;28;20202;-71
2023/03/19 05:48:39;;;;;;;1.13;1.13;;;;;;;8.71;100.00;100937.31;5088884;28;20300;-71
2023/03/19 05:51:08;;;;;;;0.90;0.90;;;;;;;8.92;100.00;100938.09;5090569;28;20198;-71
2023/03/19 05:53:35;;;;;;;1.37;1.37;;;;;;;8.99;100.00;100934.88;5090471;28;20272;-71
2023/03/19 05:56:01;;;;;;;0.73;0.73;;;;;;;8.98;100.00;100942.59;5090352;28;20798;-71
2023/03/19 05:58:28;;;;;;;0.70;0.70;;;;;;;9.01;100.00;100925.50;5085637;28;20227;-71
2023/03/19 06:00:56;;;;;;;0.60;0.60;;;;;;;9.24;100.00;100941.81;5081251;28;20209;-70
2023/03/19 06:03:23;;;;;;;0.60;0.60;;;;;;;9.33;100.00;100935.22;5090229;28;20197;-70
2023/03/19 06:05:51;;;;;;;0.70;0.70;;;;;;;9.37;100.00;100936.22;5090203;28;20205;-73
2023/03/19 06:08:20;;;;;;;1.07;1.07;;;;;;;9.52;100.00;100943.59;5090288;28;20250;-70
2023/03/19 06:10:47;;;;;;;0.60;0.60;;;;;;;9.69;100.00;100932.09;5090176;28;20198;-70
2023/03/19 06:13:13;;;;;;;0.60;0.60;;;;;;;9.57;100.00;100935.16;5090458;28;20202;-71
2023/03/19 06:15:40;;;;;;;1.37;1.37;;;;;;;9.66;100.00;100932.00;5076256;28;20611;-71
2023/03/19 06:18:07;;;;;;;1.00;1.00;;;;;;;9.71;100.00;100930.41;5090527;28;20294;-70
2023/03/19 06:20:34;;;;;;;0.85;0.85;;;;;;;9.82;100.00;100927.34;5090189;28;20203;-70
2023/03/19 06:23:01;;;;;;;0.77;0.77;;;;;;;10.00;100.00;100950.34;5090036;28;20206;-70
2023/03/19 06:25:29;;;;;;;0.60;0.60;;;;;;;10.09;100.00;100950.63;5089887;28;20205;-72
2023/03/19 06:27:56;;;;;;;0.60;0.60;;;;;;;9.95;100.00;100932.06;5090192;28;20190;-72
2023/03/19 06:30:23;;;;;;;1.63;1.53;;;;;;;9.92;100.00;100947.50;5090264;28;20202;-71
2023/03/19 06:32:50;;;;;;;0.70;0.70;;;;;;;9.64;100.00;100931.94;5090155;28;20194;-70
2023/03/19 06:35:17;;;;;;;0.90;0.90;;;;;;;9.67;100.00;100944.06;5054770;28;20543;-71
2023/03/19 06:37:44;;;;;;;0.60;0.60;;;;;;;9.28;100.00;100923.81;5051048;28;20195;-71
2023/03/19 06:40:12;;;;;;;1.53;1.53;;;;;;;9.71;100.00;100951.13;5081318;28;20205;-70
2023/03/19 06:42:40;;;;;;;0.70;0.70;;;;;;;9.41;100.00;100933.78;5038119;28;20202;-70
2023/03/19 06:45:08;;;;;;;8.67;1.20;;;;;;;9.60;100.00;100931.75;5090117;28;20204;-72
2023/03/19 06:47:35;;;;;;;0.70;0.70;;;;;;;9.74;100.00;100948.63;5090801;28;20577;-70
2023/03/19 06:50:02;;;;;;;0.80;0.80;;;;;;;9.68;100.00;100946.72;5073439;28;20207;-72
2023/03/19 06:52:29;;;;;;;0.70;0.70;;;;;;;9.68;100.00;100941.56;5087774;28;20260;-70
2023/03/19 06:54:55;;;;;;;0.90;0.90;;;;;;;9.62;100.00;100943.06;5080209;28;20205;-70
2023/03/19 06:57:22;;;;;;;2.87;1.20;;;;;;;9.69;100.00;100939.84;5057675;28;20229;-68
2023/03/19 06:59:50;;;;;;;3.00;1.23;;;;;;;9.52;100.00;100917.72;5093662;28;20217;-69
2023/03/19 07:02:17;;;;;;;0.70;0.70;;;;;;;9.84;100.00;100927.41;5093633;28;20210;-77
2023/03/19 07:04:45;;;;;;;0.65;0.65;;;;;;;10.09;100.00;100940.28;5093554;28;20198;-76
2023/03/19 07:07:12;;;;;;;0.60;0.60;;;;;;;10.06;100.00;100918.56;5093596;28;20672;-79
2023/03/19 07:09:39;;;;;;;0.63;0.63;;;;;;;10.08;100.00;100941.09;5093681;28;20230;-77
2023/03/19 07:12:06;;;;;;;0.70;0.70;;;;;;;10.29;100.00;100940.91;5093496;28;20210;-71
2023/03/19 07:14:33;;;;;;;1.00;1.00;;;;;;;10.17;100.00;100930.16;5093420;28;20202;-72
2023/03/19 07:17:01;;;;;;;0.60;0.60;;;;;;;10.42;100.00;100950.78;5078928;28;20225;-69
2023/03/19 07:19:28;;;;;;;0.57;0.57;;;;;;;10.43;100.00;100948.25;5093274;28;20206;-71
2023/03/19 07:21:55;;;;;;;0.70;0.70;;;;;;;10.52;100.00;100942.47;5093176;28;20778;-70
2023/03/19 07:24:22;;;;;;;0.73;0.73;;;;;;;10.29;100.00;100940.91;5093382;28;20221;-70
2023/03/19 07:26:49;;;;;;;0.60;0.60;;;;;;;10.29;100.00;100939.19;5039115;28;20205;-70
2023/03/19 07:29:16;;;;;;;0.70;0.70;;;;;;;10.26;100.00;100933.91;5045991;28;20205;-70
2023/03/19 07:31:43;;;;;;;0.50;0.50;;;;;;;10.20;100.00;100932.84;5093159;28;20635;-70
2023/03/19 07:34:11;;;;;;;0.80;0.80;;;;;;;10.46;100.00;100942.25;5086306;28;20199;-70
2023/03/19 07:36:38;;;;;;;0.70;0.70;;;;;;;10.69;100.00;100938.63;5072800;28;20226;-70
2023/03/19 07:39:05;;;;;;;0.80;0.80;;;;;;;10.98;100.00;100938.53;5092060;28;20233;-71
2023/03/19 07:41:31;;;;;;;0.60;0.60;;;;;;;11.00;100.00;100936.84;5092769;28;20209;-71
2023/03/19 07:43:58;;;;;;;0.80;0.80;;;;;;;10.70;100.00;100936.91;5043198;28;20205;-70
2023/03/19 07:46:25;;;;;;;0.70;0.70;;;;;;;10.71;100.00;100942.13;5092713;28;20203;-71
2023/03/19 07:48:52;;;;;;;0.70;0.70;;;;;;;10.76;100.00;100943.16;5040682;28;20198;-71
2023/03/19 07:51:20;;;;;;;3.25;3.05;;;;;;;10.89;100.00;100939.16;5092713;28;20222;-71
2023/03/19 07:53:47;;;;;;;0.80;0.80;;;;;;;11.14;100.00;100930.31;5092634;28;20220;-71
2023/03/19 07:56:14;;;;;;;0.77;0.77;;;;;;;11.49;100.00;100936.41;5078637;28;20218;-71
2023/03/19 07:58:41;;;;;;;0.70;0.70;;;;;;;11.38;99.96;100921.44;5091607;28;20633;-70
2023/03/19 08:01:08;;;;;;;0.60;0.60;;;;;;;11.68;98.18;100943.81;5092171;28;20672;-73
2023/03/19 08:03:35;;;;;;;0.70;0.70;;;;;;;11.90;95.51;100940.94;5092425;28;20198;-70
2023/03/19 08:06:02;;;;;;;0.85;0.85;;;;;;;11.66;94.87;100942.91;5092238;28;20588;-69
2023/03/19 08:08:33;;;;;;;0.77;0.77;;;;;;;11.89;94.98;100941.75;5092382;28;20205;-70
2023/03/19 08:11:00;;;;;;;0.80;0.80;;;;;;;11.83;92.89;100942.50;5092178;28;20289;-70
2023/03/19 08:13:28;;;;;;;0.70;0.70;;;;;;;11.67;92.81;100939.44;5052367;28;20202;-70
2023/03/19 08:15:55;;;;;;;0.70;0.70;;;;;;;11.66;94.26;100937.72;5082338;28;20692;-70
2023/03/19 08:18:22;;;;;;;0.60;0.60;;;;;;;11.81;95.01;100951.09;5092016;28;20703;-70
2023/03/19 08:20:49;;;;;;;0.70;0.70;;;;;;;11.85;94.61;100934.72;5092144;28;20205;-70
2023/03/19 08:23:16;;;;;;;1.83;1.73;;;;;;;11.92;91.41;100939.22;5091853;28;20229;-70
2023/03/19 08:25:45;;;;;;;0.70;0.70;;;;;;;11.95;91.20;100941.03;5084645;28;20199;-70
2023/03/19 08:28:12;;;;;;;0.90;0.90;;;;;;;12.10;89.20;100911.06;5085296;28;20206;-71
2023/03/19 08:30:39;;;;;;;0.70;0.70;;;;;;;12.25;86.99;100929.59;5091793;28;20201;-70
2023/03/19 08:33:06;;;;;;;0.70;0.70;;;;;;;12.22;87.04;100934.75;5079781;28;20203;-70
2023/03/19 08:35:32;;;;;;;0.73;0.73;;;;;;;12.31;88.29;100945.31;5089849;28;20244;-70
2023/03/19 08:37:59;;;;;;;0.93;0.93;;;;;;;12.35;88.97;100935.88;5091671;28;20248;-70
2023/03/19 08:40:26;;;;;;;0.77;0.77;;;;;;;12.34;86.39;100932.38;5091540;28;20225;-70
2023/03/19 08:42:55;;;;;;;0.90;0.90;;;;;;;12.17;87.35;100912.94;5091625;28;20645;-70
2023/03/19 08:45:23;;;;;;;0.70;0.70;;;;;;;12.02;89.12;100925.59;5091511;28;20209;-70
2023/03/19 08:47:50;;;;;;;6.13;1.38;;;;;;;11.98;89.06;100921.19;5091745;28;20202;-70
2023/03/19 08:50:17;;;;;;;0.90;0.90;;;;;;;12.22;89.00;100915.66;5091494;28;20292;-70
2023/03/19 08:52:44;;;;;;;0.73;0.73;;;;;;;12.16;85.62;100911.22;5077133;28;20194;-70
2023/03/19 08:55:11;;;;;;;0.70;0.70;;;;;;;12.27;85.51;100908.84;5091502;28;20685;-71
2023/03/19 08:57:38;;;;;;;0.90;0.90;;;;;;;12.19;84.55;100905.19;5091057;28;20228;-70
2023/03/19 09:00:07;;;;;;;0.70;0.70;;;;;;;12.25;84.90;100901.00;5077305;28;20202;-70
2023/03/19 09:02:34;;;;;;;0.60;0.60;;;;;;;12.15;84.36;100901.66;5073420;28;20573;-71
2023/03/19 09:05:01;;;;;;;0.70;0.70;;;;;;;12.27;84.81;100901.88;5091151;28;20270;-70
2023/03/19 09:07:28;;;;;;;0.90;0.90;;;;;;;12.35;83.08;100912.47;5091301;28;20206;-71
2023/03/19 09:09:55;;;;;;;0.90;0.90;;;;;;;12.23;83.33;100923.50;5090743;28;20201;-70
2023/03/19 09:12:21;;;;;;;1.40;1.40;;;;;;;12.49;78.86;100910.13;5091123;28;20205;-70
2023/03/19 09:14:48;;;;;;;0.70;0.70;;;;;;;12.48;78.06;100900.59;5089517;28;20601;-76
2023/03/19 09:17:17;;;;;;;1.00;1.00;;;;;;;12.38;76.71;100902.13;5078476;28;20226;-73
2023/03/19 09:19:43;;;;;;;0.63;0.63;;;;;;;12.42;77.84;100894.41;5091264;28;20288;-70
2023/03/19 09:22:10;;;;;;;0.75;0.75;;;;;;;12.41;77.11;100897.00;5076723;28;20309;-69
2023/03/19 09:24:37;;;;;;;0.75;0.75;;;;;;;12.41;76.70;100879.66;5090871;28;20206;-68
2023/03/19 09:27:04;;;;;;;0.75;0.75;;;;;;;12.55;72.62;100871.25;5090660;28;20213;-70
2023/03/19 09:29:31;;;;;;;0.60;0.60;;;;;;;12.74;71.40;100894.16;5080564;28;20210;-69
2023/03/19 09:31:59;;;;;;;0.63;0.63;;;;;;;12.45;72.24;100885.78;5084773;28;20213;-71
2023/03/19 09:34:27;;;;;;;1.20;1.20;;;;;;;12.89;74.08;100881.44;5079681;28;20202;-71
2023/03/19 09:36:54;;;;;;;1.00;1.00;;;;;;;12.61;74.37;100866.16;5090479;28;20712;-73
2023/03/19 09:39:21;;;;;;;0.70;0.70;;;;;;;12.92;74.44;100881.50;5090691;28;20258;-72
2023/03/19 09:41:59;;;;;;;1.42;1.42;;;;;;;13.17;74.16;100875.91;5039018;28;20209;-71
2023/03/19 09:44:29;;;;;;;0.88;0.88;;;;;;;13.03;73.08;100874.75;5091014;28;20209;-71
2023/03/19 09:47:02;;;;;;;0.70;0.70;;;;;;;13.36;80.21;100870.19;5090585;28;20198;-72
2023/03/19 09:49:33;;;;;;;0.80;0.80;;;;;;;13.06;70.99;100847.91;5077057;28;20228;-69
2023/03/19 09:52:07;;;;;;;0.70;0.70;;;;;;;13.00;70.60;100848.69;5090685;28;20213;-70
2023/03/19 09:54:39;;;;;;;0.60;0.60;;;;;;;12.62;74.13;100787.28;5051943;28;20202;-70
2023/03/19 09:57:09;;;;;;;0.80;0.80;;;;;;;13.13;71.09;100868.91;5084001;28;20233;-70
2023/03/19 09:59:37;;;;;;;0.63;0.63;;;;;;;13.05;71.75;100852.25;5076112;28;20226;-71
2023/03/19 10:02:26;;;;;;;0.70;0.70;;;;;;;13.29;73.54;100857.91;5090485;28;20194;-70
2023/03/19 10:05:05;;;;;;;1.10;1.10;;;;;;;13.46;73.28;100854.69;5070435;28;20206;-71
2023/03/19 10:07:46;;;;;;;0.70;0.70;;;;;;;13.28;72.78;100856.13;5084488;28;20655;-71
2023/03/19 10:10:29;;;;;;;0.80;0.80;;;;;;;13.51;72.52;100858.25;5021729;28;20305;-72
2023/03/19 10:13:08;;;;;;;0.57;0.57;;;;;;;13.52;71.51;100855.63;5075574;28;20277;-72
2023/03/19 10:15:38;;;;;;;0.80;0.80;;;;;;;13.37;70.43;100856.31;5090381;28;20206;-71
2023/03/19 10:18:09;;;;;;;0.57;0.57;;;;;;;13.47;71.10;100846.03;5051671;28;20226;-70
2023/03/19 10:20:48;;;;;;;0.80;0.80;;;;;;;13.68;68.81;100851.56;5076369;28;20230;-71
2023/03/19 10:23:45;;;;;;;0.70;0.70;;;;;;;13.72;68.60;100843.81;5094257;28;20206;-71
2023/03/19 10:26:16;;;;;;;0.80;0.80;;;;;;;13.69;68.93;100848.97;5094187;28;20650;-71
2023/03/19 10:28:45;;;;;;;0.70;0.70;;;;;;;13.55;70.16;100826.19;5059387;28;20696;-72
2023/03/19 10:31:28;;;;;;;0.70;0.70;;;;;;;13.70;73.54;100823.75;5094035;28;20222;-70
2023/03/19 10:34:10;;;;;;;0.80;0.80;;;;;;;13.48;69.18;100822.59;5094116;28;20212;-71
2023/03/19 10:36:38;;;;;;;0.80;0.80;;;;;;;13.33;69.19;100825.84;5093967;28;20217;-70
2023/03/19 10:39:06;;;;;;;0.60;0.60;;;;;;;13.53;69.24;100817.44;5093956;28;20198;-71
2023/03/19 10:41:43;;;;;;;0.60;0.60;;;;;;;13.72;68.14;100809.03;5093865;28;20202;-70
2023/03/19 10:44:20;;;;;;;0.65;0.65;;;;;;;13.92;68.08;100825.81;5093835;28;20197;-71
2023/03/19 10:46:47;;;;;;;0.70;0.70;;;;;;;13.90;68.52;100817.13;5093804;28;20205;-71
2023/03/19 10:49:15;;;;;;;0.70;0.70;;;;;;;13.78;68.93;100785.66;5093763;28;20201;-71
2023/03/19 10:51:46;;;;;;;0.70;0.70;;;;;;;13.69;70.42;100793.38;5093678;28;20597;-70
2023/03/19 10:54:21;;;;;;;0.65;0.65;;;;;;;14.04;71.04;100810.34;5093414;28;20205;-71
2023/03/19 10:56:48;;;;;;;0.80;0.80;;;;;;;14.01;71.01;100814.66;5090143;28;20225;-71
2023/03/19 10:59:23;;;;;;;0.70;0.70;;;;;;;14.20;70.87;100799.22;5093342;28;20237;-71
2023/03/19 11:01:50;;;;;;;0.63;0.63;;;;;;;14.26;69.90;100791.50;5073463;28;20590;-71
2023/03/19 11:04:19;;;;;;;0.70;0.70;;;;;;;14.26;68.49;100790.63;5073137;28;20211;-70
2023/03/19 11:06:51;;;;;;;1.70;1.60;;;;;;;14.24;68.21;100772.31;5092455;28;20233;-71
2023/03/19 11:09:33;;;;;;;0.60;0.60;;;;;;;14.37;67.78;100789.91;5058233;28;20202;-71
2023/03/19 11:12:08;;;;;;;0.50;0.50;;;;;;;14.41;67.46;100779.50;5093488;28;20198;-72
2023/03/19 11:14:37;;;;;;;0.70;0.70;;;;;;;14.17;66.84;100772.22;5057977;28;20193;-71
2023/03/19 11:17:06;;;;;;;0.68;0.68;;;;;;;14.44;65.90;100774.31;5092932;28;20225;-70
2023/03/19 11:19:40;;;;;;;0.60;0.60;;;;;;;14.24;65.99;100769.72;5037862;28;20210;-71
2023/03/19 11:22:16;;;;;;;0.60;0.60;;;;;;;14.18;65.13;100760.97;5092777;28;20233;-70
2023/03/19 11:24:51;;;;;;;2.45;2.35;;;;;;;14.32;64.79;100762.88;5092893;28;20202;-70
2023/03/19 11:27:19;;;;;;;0.60;0.60;;;;;;;14.13;65.76;100752.19;5093070;28;20216;-70
2023/03/19 11:29:46;;;;;;;0.68;0.68;;;;;;;14.18;67.02;100725.31;5093235;28;20232;-70